sensor_id;sensor_type;location;lat;lon;timestamp;pressure;altitude;pressure_sealevel;temperature;humidity
56198;BME280;42700;42.524;12.052;2022-08-19T00:00:14;95176.78;;;22.58;100.00
56198;BME280;42700;42.524;12.052;2022-08-19T00:02:40;95220.22;;;22.61;100.00
56198;BME280;42700;42.524;12.052;2022-08-19T00:05:07;95212.75;;;22.67;100.00
56198;BME280;42700;42.524;12.052;2022-08-19T00:07:36;95176.03;;;22.75;100.00
56198;BME280;42700;42.524;12.052;2022-08-19T00:10:03;95182.06;;;22.72;100.00
56198;BME280;42700;42.524;12.052;2022-08-19T00:12:29;95177.94;;;22.83;100.00
56198;BME280;42700;42.524;12.052;2022-08-19T00:14:54;95217.06;;;22.77;100.00
56198;BME280;42700;42.524;12.052;2022-08-19T00:17:20;95204.84;;;22.79;100.00
56198;BME280;42700;42.524;12.052;2022-08-19T00:19:45;95199.59;;;22.83;100.00
56198;BME280;42700;42.524;12.052;2022-08-19T00:22:11;95178.88;;;22.87;100.00
56198;BME280;42700;42.524;12.052;2022-08-19T00:24:37;95187.50;;;22.89;100.00
56198;BME280;42700;42.524;12.052;2022-08-19T00:27:04;95181.59;;;22.87;100.00
56198;BME280;42700;42.524;12.052;2022-08-19T00:29:30;95185.91;;;22.97;100.00
56198;BME280;42700;42.524;12.052;2022-08-19T00:31:56;95207.25;;;22.98;100.00
56198;BME280;42700;42.524;12.052;2022-08-19T00:34:23;95207.72;;;22.92;100.00
56198;BME280;42700;42.524;12.052;2022-08-19T00:36:52;95182.09;;;22.89;100.00
56198;BME280;42700;42.524;12.052;2022-08-19T00:39:17;95156.16;;;22.88;100.00
56198;BME280;42700;42.524;12.052;2022-08-19T00:41:43;95162.97;;;22.77;100.00
56198;BME280;42700;42.524;12.052;2022-08-19T00:46:36;95193.53;;;22.86;100.00
56198;BME280;42700;42.524;12.052;2022-08-19T00:49:03;95197.69;;;22.92;100.00
56198;BME280;42700;42.524;12.052;2022-08-19T00:51:31;95196.09;;;22.91;100.00
56198;BME280;42700;42.524;12.052;2022-08-19T00:53:59;95207.72;;;22.92;100.00
56198;BME280;42700;42.524;12.052;2022-08-19T00:56:26;95220.91;;;22.93;100.00
56198;BME280;42700;42.524;12.052;2022-08-19T00:58:52;95226.47;;;22.88;100.00
56198;BME280;42700;42.524;12.052;2022-08-19T01:01:19;95232.69;;;22.80;100.00
56198;BME280;42700;42.524;12.052;2022-08-19T01:03:45;95232.19;;;22.78;100.00
56198;BME280;42700;42.524;12.052;2022-08-19T01:06:10;95232.97;;;22.70;100.00
56198;BME280;42700;42.524;12.052;2022-08-19T01:08:35;95234.69;;;22.65;100.00
56198;BME280;42700;42.524;12.052;2022-08-19T01:11:01;95257.75;;;22.54;100.00
56198;BME280;42700;42.524;12.052;2022-08-19T01:13:28;95259.94;;;22.52;100.00
56198;BME280;42700;42.524;12.052;2022-08-19T01:16:04;95262.78;;;22.47;100.00
56198;BME280;42700;42.524;12.052;2022-08-19T01:18:30;95285.41;;;22.51;100.00
56198;BME280;42700;42.524;12.052;2022-08-19T01:20:57;95277.81;;;22.71;100.00
56198;BME280;42700;42.524;12.052;2022-08-19T01:23:24;95280.06;;;22.69;100.00
56198;BME280;42700;42.524;12.052;2022-08-19T01:26:12;95268.59;;;22.72;100.00
56198;BME280;42700;42.524;12.052;2022-08-19T01:28:39;95260.44;;;22.54;100.00
56198;BME280;42700;42.524;12.052;2022-08-19T01:31:05;95276.31;;;22.47;100.00
56198;BME280;42700;42.524;12.052;2022-08-19T01:33:31;95279.38;;;22.54;100.00
56198;BME280;42700;42.524;12.052;2022-08-19T01:36:03;95271.13;;;22.59;100.00
56198;BME280;42700;42.524;12.052;2022-08-19T01:38:30;95281.31;;;22.62;100.00
56198;BME280;42700;42.524;12.052;2022-08-19T01:40:56;95273.38;;;22.66;100.00
56198;BME280;42700;42.524;12.052;2022-08-19T01:43:22;95270.06;;;22.78;100.00
56198;BME280;42700;42.524;12.052;2022-08-19T01:45:47;95280.41;;;22.76;100.00
56198;BME280;42700;42.524;12.052;2022-08-19T01:48:13;95299.97;;;22.73;100.00
56198;BME280;42700;42.524;12.052;2022-08-19T01:50:39;95299.19;;;22.81;100.00
56198;BME280;42700;42.524;12.052;2022-08-19T01:53:05;95316.06;;;22.78;100.00
56198;BME280;42700;42.524;12.052;2022-08-19T01:55:32;95299.69;;;22.83;100.00
56198;BME280;42700;42.524;12.052;2022-08-19T01:57:59;95291.25;;;22.84;100.00
56198;BME280;42700;42.524;12.052;2022-08-19T02:00:27;95302.22;;;22.79;100.00
56198;BME280;42700;42.524;12.052;2022-08-19T02:02:53;95310.66;;;22.78;100.00
56198;BME280;42700;42.524;12.052;2022-08-19T02:05:19;95317.13;;;22.68;100.00
56198;BME280;42700;42.524;12.052;2022-08-19T02:07:46;95309.81;;;22.69;100.00
56198;BME280;42700;42.524;12.052;2022-08-19T02:10:14;95319.81;;;22.59;100.00
56198;BME280;42700;42.524;12.052;2022-08-19T02:12:40;95315.97;;;22.60;100.00
56198;BME280;42700;42.524;12.052;2022-08-19T02:15:06;95309.59;;;22.56;100.00
56198;BME280;42700;42.524;12.052;2022-08-19T02:17:33;95314.03;;;22.52;100.00
56198;BME280;42700;42.524;12.052;2022-08-19T02:19:58;95320.25;;;22.53;100.00
56198;BME280;42700;42.524;12.052;2022-08-19T02:22:25;95323.09;;;22.47;100.00
56198;BME280;42700;42.524;12.052;2022-08-19T02:24:51;95322.88;;;22.44;100.00
56198;BME280;42700;42.524;12.052;2022-08-19T02:27:16;95336.53;;;22.39;100.00
56198;BME280;42700;42.524;12.052;2022-08-19T02:29:42;95345.97;;;22.27;100.00
56198;BME280;42700;42.524;12.052;2022-08-19T02:32:08;95341.69;;;22.26;100.00
56198;BME280;42700;42.524;12.052;2022-08-19T02:34:33;95337.38;;;22.25;100.00
56198;BME280;42700;42.524;12.052;2022-08-19T02:36:59;95331.88;;;22.30;100.00
56198;BME280;42700;42.524;12.052;2022-08-19T02:39:25;95343.28;;;22.27;100.00
56198;BME280;42700;42.524;12.052;2022-08-19T02:41:51;95340.00;;;22.30;100.00
56198;BME280;42700;42.524;12.052;2022-08-19T02:44:17;95336.59;;;22.25;100.00
56198;BME280;42700;42.524;12.052;2022-08-19T02:46:44;95355.22;;;22.26;100.00
56198;BME280;42700;42.524;12.052;2022-08-19T02:49:10;95363.81;;;22.28;100.00
56198;BME280;42700;42.524;12.052;2022-08-19T02:51:40;95378.06;;;22.20;100.00
56198;BME280;42700;42.524;12.052;2022-08-19T02:54:06;95369.03;;;22.25;100.00
56198;BME280;42700;42.524;12.052;2022-08-19T02:56:34;95387.16;;;22.24;100.00
56198;BME280;42700;42.524;12.052;2022-08-19T02:59:00;95391.34;;;22.30;100.00
56198;BME280;42700;42.524;12.052;2022-08-19T03:01:27;95399.44;;;22.30;100.00
56198;BME280;42700;42.524;12.052;2022-08-19T03:03:53;95393.44;;;22.34;100.00
56198;BME280;42700;42.524;12.052;2022-08-19T03:06:19;95411.47;;;22.24;100.00
56198;BME280;42700;42.524;12.052;2022-08-19T03:08:46;95410.25;;;22.30;100.00
56198;BME280;42700;42.524;12.052;2022-08-19T03:11:16;95411.09;;;22.31;100.00
56198;BME280;42700;42.524;12.052;2022-08-19T03:13:42;95417.88;;;22.28;100.00
56198;BME280;42700;42.524;12.052;2022-08-19T03:16:08;95413.69;;;22.22;100.00
56198;BME280;42700;42.524;12.052;2022-08-19T03:18:34;95435.41;;;22.17;100.00
56198;BME280;42700;42.524;12.052;2022-08-19T03:20:59;95431.75;;;22.13;100.00
56198;BME280;42700;42.524;12.052;2022-08-19T03:23:25;95431.56;;;22.09;100.00
56198;BME280;42700;42.524;12.052;2022-08-19T03:25:51;95428.16;;;22.04;100.00
56198;BME280;42700;42.524;12.052;2022-08-19T03:28:19;95430.19;;;21.98;100.00
56198;BME280;42700;42.524;12.052;2022-08-19T03:30:54;95439.19;;;21.93;100.00
56198;BME280;42700;42.524;12.052;2022-08-19T03:33:22;95431.81;;;21.85;100.00
56198;BME280;42700;42.524;12.052;2022-08-19T03:35:59;95437.31;;;21.80;100.00
56198;BME280;42700;42.524;12.052;2022-08-19T03:38:25;95445.53;;;21.75;100.00
56198;BME280;42700;42.524;12.052;2022-08-19T03:40:51;95462.44;;;21.81;100.00
56198;BME280;42700;42.524;12.052;2022-08-19T03:43:16;95465.31;;;21.84;100.00
56198;BME280;42700;42.524;12.052;2022-08-19T03:45:42;95477.25;;;21.83;100.00
56198;BME280;42700;42.524;12.052;2022-08-19T03:48:08;95480.06;;;21.78;100.00
56198;BME280;42700;42.524;12.052;2022-08-19T03:50:38;95472.44;;;21.80;100.00
56198;BME280;42700;42.524;12.052;2022-08-19T03:53:04;95470.22;;;21.82;100.00
56198;BME280;42700;42.524;12.052;2022-08-19T03:55:29;95481.16;;;21.77;100.00
56198;BME280;42700;42.524;12.052;2022-08-19T03:57:55;95485.75;;;21.77;100.00
56198;BME280;42700;42.524;12.052;2022-08-19T04:00:21;95481.38;;;21.67;100.00
56198;BME280;42700;42.524;12.052;2022-08-19T04:02:47;95487.84;;;21.66;100.00
56198;BME280;42700;42.524;12.052;2022-08-19T04:05:12;95487.41;;;21.45;100.00
56198;BME280;42700;42.524;12.052;2022-08-19T04:07:39;95502.22;;;21.33;100.00
56198;BME280;42700;42.524;12.052;2022-08-19T04:10:04;95488.41;;;21.07;100.00
56198;BME280;42700;42.524;12.052;2022-08-19T04:12:30;95495.63;;;21.26;100.00
56198;BME280;42700;42.524;12.052;2022-08-19T04:14:56;95497.38;;;21.16;100.00
56198;BME280;42700;42.524;12.052;2022-08-19T04:17:21;95483.72;;;21.27;100.00
56198;BME280;42700;42.524;12.052;2022-08-19T04:19:47;95477.00;;;21.38;100.00
56198;BME280;42700;42.524;12.052;2022-08-19T04:22:12;95469.25;;;21.50;100.00
56198;BME280;42700;42.524;12.052;2022-08-19T04:24:38;95484.28;;;21.56;100.00
56198;BME280;42700;42.524;12.052;2022-08-19T04:27:04;95492.88;;;21.59;100.00
56198;BME280;42700;42.524;12.052;2022-08-19T04:29:30;95497.66;;;21.62;100.00
56198;BME280;42700;42.524;12.052;2022-08-19T04:31:56;95486.28;;;21.65;100.00
56198;BME280;42700;42.524;12.052;2022-08-19T04:34:23;95496.97;;;21.70;100.00
56198;BME280;42700;42.524;12.052;2022-08-19T04:36:50;95488.22;;;21.73;100.00
56198;BME280;42700;42.524;12.052;2022-08-19T04:39:17;95476.34;;;21.74;100.00
56198;BME280;42700;42.524;12.052;2022-08-19T04:41:43;95474.25;;;21.71;100.00
56198;BME280;42700;42.524;12.052;2022-08-19T04:44:27;95451.22;;;21.87;100.00
56198;BME280;42700;42.524;12.052;2022-08-19T04:46:55;95461.59;;;21.94;100.00
56198;BME280;42700;42.524;12.052;2022-08-19T04:49:22;95447.19;;;21.99;100.00
56198;BME280;42700;42.524;12.052;2022-08-19T04:51:48;95439.19;;;21.93;100.00
56198;BME280;42700;42.524;12.052;2022-08-19T04:54:15;95426.00;;;21.92;100.00
56198;BME280;42700;42.524;12.052;2022-08-19T04:56:41;95414.66;;;22.04;100.00
56198;BME280;42700;42.524;12.052;2022-08-19T04:59:07;95402.50;;;22.15;100.00
56198;BME280;42700;42.524;12.052;2022-08-19T05:01:33;95399.75;;;22.29;100.00
56198;BME280;42700;42.524;12.052;2022-08-19T05:04:02;95398.22;;;22.37;100.00
56198;BME280;42700;42.524;12.052;2022-08-19T05:06:30;95394.78;;;22.45;100.00
56198;BME280;42700;42.524;12.052;2022-08-19T05:08:56;95399.59;;;22.48;100.00
56198;BME280;42700;42.524;12.052;2022-08-19T05:11:22;95391.97;;;22.50;100.00
56198;BME280;42700;42.524;12.052;2022-08-19T05:13:49;95389.50;;;22.62;100.00
56198;BME280;42700;42.524;12.052;2022-08-19T05:16:16;95381.25;;;22.67;100.00
56198;BME280;42700;42.524;12.052;2022-08-19T05:18:42;95375.19;;;22.71;100.00
56198;BME280;42700;42.524;12.052;2022-08-19T05:21:27;95368.81;;;22.66;100.00
56198;BME280;42700;42.524;12.052;2022-08-19T05:24:11;95352.44;;;22.63;100.00
56198;BME280;42700;42.524;12.052;2022-08-19T05:26:38;95360.41;;;22.68;100.00
56198;BME280;42700;42.524;12.052;2022-08-19T05:29:04;95335.75;;;22.70;100.00
56198;BME280;42700;42.524;12.052;2022-08-19T05:31:30;95331.88;;;22.62;100.00
56198;BME280;42700;42.524;12.052;2022-08-19T05:33:56;95339.38;;;22.65;100.00
56198;BME280;42700;42.524;12.052;2022-08-19T05:36:26;95322.69;;;22.63;100.00
56198;BME280;42700;42.524;12.052;2022-08-19T05:38:52;95309.63;;;22.65;100.00
56198;BME280;42700;42.524;12.052;2022-08-19T05:41:18;95327.50;;;22.75;100.00
56198;BME280;42700;42.524;12.052;2022-08-19T05:43:44;95320.00;;;22.72;100.00
56198;BME280;42700;42.524;12.052;2022-08-19T05:46:13;95311.09;;;22.71;100.00
56198;BME280;42700;42.524;12.052;2022-08-19T05:48:41;95314.41;;;22.59;100.00
56198;BME280;42700;42.524;12.052;2022-08-19T05:51:06;95314.63;;;22.49;100.00
56198;BME280;42700;42.524;12.052;2022-08-19T05:53:34;95336.53;;;22.39;100.00
56198;BME280;42700;42.524;12.052;2022-08-19T05:56:07;95331.69;;;22.50;100.00
56198;BME280;42700;42.524;12.052;2022-08-19T05:58:34;95331.06;;;22.53;100.00
56198;BME280;42700;42.524;12.052;2022-08-19T06:01:00;95348.22;;;22.48;100.00
56198;BME280;42700;42.524;12.052;2022-08-19T06:03:32;95333.47;;;22.54;100.00
56198;BME280;42700;42.524;12.052;2022-08-19T06:05:58;95336.38;;;22.66;100.00
56198;BME280;42700;42.524;12.052;2022-08-19T06:08:25;95345.94;;;22.73;100.00
56198;BME280;42700;42.524;12.052;2022-08-19T06:10:50;95352.59;;;22.66;100.00
56198;BME280;42700;42.524;12.052;2022-08-19T06:13:16;95358.19;;;22.70;100.00
56198;BME280;42700;42.524;12.052;2022-08-19T06:15:44;95355.25;;;22.89;100.00
56198;BME280;42700;42.524;12.052;2022-08-19T06:18:11;95353.72;;;23.06;100.00
56198;BME280;42700;42.524;12.052;2022-08-19T06:20:37;95369.25;;;23.23;100.00
56198;BME280;42700;42.524;12.052;2022-08-19T06:23:02;95379.16;;;23.45;100.00
56198;BME280;42700;42.524;12.052;2022-08-19T06:25:28;95380.78;;;23.54;100.00
56198;BME280;42700;42.524;12.052;2022-08-19T06:27:54;95387.16;;;23.58;100.00
56198;BME280;42700;42.524;12.052;2022-08-19T06:30:19;95395.41;;;23.53;100.00
56198;BME280;42700;42.524;12.052;2022-08-19T06:32:45;95395.63;;;23.66;100.00
56198;BME280;42700;42.524;12.052;2022-08-19T06:35:10;95393.44;;;23.94;100.00
56198;BME280;42700;42.524;12.052;2022-08-19T06:37:38;95375.91;;;24.18;100.00
56198;BME280;42700;42.524;12.052;2022-08-19T06:40:04;95402.72;;;24.28;100.00
56198;BME280;42700;42.524;12.052;2022-08-19T06:42:29;95407.00;;;24.29;100.00
56198;BME280;42700;42.524;12.052;2022-08-19T06:44:56;95415.75;;;24.26;100.00
56198;BME280;42700;42.524;12.052;2022-08-19T06:47:23;95421.34;;;24.29;100.00
56198;BME280;42700;42.524;12.052;2022-08-19T06:49:48;95412.22;;;24.69;100.00
56198;BME280;42700;42.524;12.052;2022-08-19T06:52:14;95409.31;;;24.92;100.00
56198;BME280;42700;42.524;12.052;2022-08-19T06:54:40;95394.41;;;25.07;100.00
56198;BME280;42700;42.524;12.052;2022-08-19T06:57:06;95394.22;;;25.12;100.00
56198;BME280;42700;42.524;12.052;2022-08-19T06:59:34;95401.94;;;25.01;100.00
56198;BME280;42700;42.524;12.052;2022-08-19T07:02:01;95394.34;;;25.15;100.00
56198;BME280;42700;42.524;12.052;2022-08-19T07:04:30;95396.72;;;25.26;100.00
56198;BME280;42700;42.524;12.052;2022-08-19T07:07:08;95384.47;;;25.49;100.00
56198;BME280;42700;42.524;12.052;2022-08-19T07:09:35;95378.94;;;25.67;100.00
56198;BME280;42700;42.524;12.052;2022-08-19T07:12:02;95379.63;;;25.64;100.00
56198;BME280;42700;42.524;12.052;2022-08-19T07:14:28;95386.53;;;25.52;100.00
56198;BME280;42700;42.524;12.052;2022-08-19T07:16:55;95393.28;;;25.46;100.00
56198;BME280;42700;42.524;12.052;2022-08-19T07:19:21;95393.75;;;25.48;100.00
56198;BME280;42700;42.524;12.052;2022-08-19T07:21:48;95388.63;;;25.55;100.00
56198;BME280;42700;42.524;12.052;2022-08-19T07:24:18;95379.06;;;25.49;100.00
56198;BME280;42700;42.524;12.052;2022-08-19T07:26:44;95378.41;;;25.52;100.00
56198;BME280;42700;42.524;12.052;2022-08-19T07:29:10;95380.34;;;25.43;100.00
56198;BME280;42700;42.524;12.052;2022-08-19T07:31:36;95376.22;;;25.37;100.00
56198;BME280;42700;42.524;12.052;2022-08-19T07:34:03;95380.28;;;25.31;100.00
56198;BME280;42700;42.524;12.052;2022-08-19T07:36:32;95382.19;;;25.30;100.00
56198;BME280;42700;42.524;12.052;2022-08-19T07:38:59;95394.53;;;25.10;100.00
56198;BME280;42700;42.524;12.052;2022-08-19T07:41:26;95410.19;;;25.13;100.00
56198;BME280;42700;42.524;12.052;2022-08-19T07:43:53;95385.06;;;25.25;100.00
56198;BME280;42700;42.524;12.052;2022-08-19T07:46:19;95373.25;;;25.30;100.00
56198;BME280;42700;42.524;12.052;2022-08-19T07:48:46;95374.94;;;25.43;100.00
56198;BME280;42700;42.524;12.052;2022-08-19T07:51:15;95391.72;;;24.98;100.00
56198;BME280;42700;42.524;12.052;2022-08-19T07:53:41;95392.72;;;24.84;100.00
56198;BME280;42700;42.524;12.052;2022-08-19T07:56:08;95362.97;;;24.97;100.00
56198;BME280;42700;42.524;12.052;2022-08-19T07:58:36;95344.75;;;25.06;100.00
56198;BME280;42700;42.524;12.052;2022-08-19T08:01:02;95346.63;;;25.14;100.00
56198;BME280;42700;42.524;12.052;2022-08-19T08:03:28;95343.72;;;25.19;100.00
56198;BME280;42700;42.524;12.052;2022-08-19T08:06:13;95345.63;;;25.28;100.00
56198;BME280;42700;42.524;12.052;2022-08-19T08:08:57;95348.25;;;24.68;100.00
56198;BME280;42700;42.524;12.052;2022-08-19T08:11:39;95321.44;;;25.05;100.00
56198;BME280;42700;42.524;12.052;2022-08-19T08:14:05;95328.34;;;25.23;100.00
56198;BME280;42700;42.524;12.052;2022-08-19T08:16:36;95322.06;;;25.62;100.00
56198;BME280;42700;42.524;12.052;2022-08-19T08:19:05;95320.63;;;25.85;100.00
56198;BME280;42700;42.524;12.052;2022-08-19T08:21:32;95338.03;;;25.03;100.00
56198;BME280;42700;42.524;12.052;2022-08-19T08:23:58;95347.34;;;24.94;100.00
56198;BME280;42700;42.524;12.052;2022-08-19T08:26:24;95353.59;;;24.85;100.00
56198;BME280;42700;42.524;12.052;2022-08-19T08:28:50;95358.78;;;25.08;100.00
56198;BME280;42700;42.524;12.052;2022-08-19T08:31:16;95375.81;;;24.88;100.00
56198;BME280;42700;42.524;12.052;2022-08-19T08:33:43;95388.63;;;24.61;100.00
56198;BME280;42700;42.524;12.052;2022-08-19T08:36:10;95401.56;;;24.29;100.00
56198;BME280;42700;42.524;12.052;2022-08-19T08:38:36;95392.84;;;24.97;100.00
56198;BME280;42700;42.524;12.052;2022-08-19T08:41:05;95384.09;;;24.91;100.00
56198;BME280;42700;42.524;12.052;2022-08-19T08:43:34;95400.69;;;24.90;100.00
56198;BME280;42700;42.524;12.052;2022-08-19T08:46:01;95405.88;;;24.65;100.00
56198;BME280;42700;42.524;12.052;2022-08-19T08:48:35;95386.22;;;24.68;100.00
56198;BME280;42700;42.524;12.052;2022-08-19T08:51:03;95392.94;;;24.44;100.00
56198;BME280;42700;42.524;12.052;2022-08-19T08:53:30;95396.47;;;24.45;100.00
56198;BME280;42700;42.524;12.052;2022-08-19T08:55:56;95408.06;;;24.80;100.00
56198;BME280;42700;42.524;12.052;2022-08-19T09:01:08;95361.72;;;25.63;100.00
56198;BME280;42700;42.524;12.052;2022-08-19T09:03:34;95364.06;;;25.43;100.00
56198;BME280;42700;42.524;12.052;2022-08-19T09:06:18;95347.69;;;25.22;100.00
56198;BME280;42700;42.524;12.052;2022-08-19T09:08:52;95358.75;;;25.98;100.00
56198;BME280;42700;42.524;12.052;2022-08-19T09:16:41;95343.44;;;27.05;100.00
56198;BME280;42700;42.524;12.052;2022-08-19T09:19:07;95340.16;;;27.24;100.00
56198;BME280;42700;42.524;12.052;2022-08-19T09:21:32;95325.81;;;27.52;100.00
56198;BME280;42700;42.524;12.052;2022-08-19T09:24:02;95319.53;;;27.76;100.00
56198;BME280;42700;42.524;12.052;2022-08-19T09:26:30;95340.25;;;27.28;100.00
56198;BME280;42700;42.524;12.052;2022-08-19T09:28:57;95338.81;;;27.84;100.00
56198;BME280;42700;42.524;12.052;2022-08-19T09:31:24;95352.88;;;28.67;100.00
56198;BME280;42700;42.524;12.052;2022-08-19T09:33:50;95317.44;;;29.34;100.00
56198;BME280;42700;42.524;12.052;2022-08-19T09:36:16;95281.75;;;29.11;100.00
56198;BME280;42700;42.524;12.052;2022-08-19T09:38:43;95277.81;;;29.24;100.00
56198;BME280;42700;42.524;12.052;2022-08-19T09:41:13;95298.44;;;28.74;100.00
56198;BME280;42700;42.524;12.052;2022-08-19T09:43:40;95331.91;;;28.71;100.00
56198;BME280;42700;42.524;12.052;2022-08-19T09:46:06;95293.50;;;28.80;100.00
56198;BME280;42700;42.524;12.052;2022-08-19T09:48:32;95312.69;;;27.95;100.00
56198;BME280;42700;42.524;12.052;2022-08-19T09:51:05;95310.50;;;24.84;100.00
56198;BME280;42700;42.524;12.052;2022-08-19T09:53:31;95287.41;;;23.78;100.00
56198;BME280;42700;42.524;12.052;2022-08-19T09:55:57;95381.28;;;23.08;100.00
56198;BME280;42700;42.524;12.052;2022-08-19T09:58:22;95649.59;;;23.15;100.00
56198;BME280;42700;42.524;12.052;2022-08-19T10:00:53;95906.31;;;23.63;100.00
56198;BME280;42700;42.524;12.052;2022-08-19T10:03:19;95894.81;;;23.44;100.00
56198;BME280;42700;42.524;12.052;2022-08-19T10:05:45;95944.34;;;24.22;100.00
56198;BME280;42700;42.524;12.052;2022-08-19T10:08:13;96221.75;;;25.15;100.00
56198;BME280;42700;42.524;12.052;2022-08-19T10:10:38;96141.28;;;25.64;100.00
56198;BME280;42700;42.524;12.052;2022-08-19T10:13:04;95888.50;;;25.38;100.00
56198;BME280;42700;42.524;12.052;2022-08-19T10:15:29;95833.84;;;26.36;100.00
56198;BME280;42700;42.524;12.052;2022-08-19T10:17:54;95179.66;;;26.66;100.00
56198;BME280;42700;42.524;12.052;2022-08-19T10:20:20;94043.16;;;26.74;100.00
56198;BME280;42700;42.524;12.052;2022-08-19T10:22:46;94715.47;;;27.72;100.00
56198;BME280;42700;42.524;12.052;2022-08-19T10:25:12;93415.50;;;28.62;100.00
56198;BME280;42700;42.524;12.052;2022-08-19T10:27:41;92210.06;;;29.30;100.00
56198;BME280;42700;42.524;12.052;2022-08-19T10:30:07;91566.78;;;29.76;100.00
56198;BME280;42700;42.524;12.052;2022-08-19T10:32:34;90166.28;;;29.56;100.00
56198;BME280;42700;42.524;12.052;2022-08-19T10:34:59;92825.94;;;30.45;100.00
56198;BME280;42700;42.524;12.052;2022-08-19T10:37:25;89594.97;;;29.61;100.00
56198;BME280;42700;42.524;12.052;2022-08-19T10:39:51;88304.44;;;29.87;100.00
56198;BME280;42700;42.524;12.052;2022-08-19T10:42:16;88298.22;;;29.73;100.00
56198;BME280;42700;42.524;12.052;2022-08-19T10:44:43;91328.41;;;30.13;100.00
56198;BME280;42700;42.524;12.052;2022-08-19T10:47:09;90134.78;;;30.08;100.00
56198;BME280;42700;42.524;12.052;2022-08-19T10:49:35;87829.41;;;29.66;100.00
56198;BME280;42700;42.524;12.052;2022-08-19T10:52:20;86547.81;;;29.41;100.00
56198;BME280;42700;42.524;12.052;2022-08-19T10:55:04;84643.28;;;29.10;100.00
56198;BME280;42700;42.524;12.052;2022-08-19T10:57:48;83508.13;;;28.93;100.00
56198;BME280;42700;42.524;12.052;2022-08-19T11:00:14;81769.09;;;27.76;100.00
56198;BME280;42700;42.524;12.052;2022-08-19T11:02:40;81586.63;;;28.29;100.00
56198;BME280;42700;42.524;12.052;2022-08-19T11:05:06;81694.97;;;28.84;100.00
56198;BME280;42700;42.524;12.052;2022-08-19T11:07:32;80462.31;;;28.88;100.00
56198;BME280;42700;42.524;12.052;2022-08-19T11:09:57;80637.22;;;29.33;100.00
56198;BME280;42700;42.524;12.052;2022-08-19T11:12:23;83648.06;;;30.12;100.00
56198;BME280;42700;42.524;12.052;2022-08-19T11:14:49;80383.50;;;29.59;100.00
56198;BME280;42700;42.524;12.052;2022-08-19T11:17:15;77885.19;;;28.38;100.00
56198;BME280;42700;42.524;12.052;2022-08-19T11:19:40;82915.38;;;30.35;100.00
56198;BME280;42700;42.524;12.052;2022-08-19T11:22:08;80817.56;;;29.91;100.00
56198;BME280;42700;42.524;12.052;2022-08-19T11:24:34;80073.88;;;29.22;100.00
56198;BME280;42700;42.524;12.052;2022-08-19T11:27:02;83773.16;;;28.79;100.00
56198;BME280;42700;42.524;12.052;2022-08-19T11:29:29;84332.09;;;29.12;100.00
56198;BME280;42700;42.524;12.052;2022-08-19T11:31:55;88156.81;;;29.71;100.00
56198;BME280;42700;42.524;12.052;2022-08-19T11:34:21;85538.59;;;28.92;100.00
56198;BME280;42700;42.524;12.052;2022-08-19T11:36:48;90754.13;;;29.23;100.00
56198;BME280;42700;42.524;12.052;2022-08-19T11:39:14;87272.56;;;26.14;100.00
56198;BME280;42700;42.524;12.052;2022-08-19T11:41:41;91054.34;;;24.60;100.00
56198;BME280;42700;42.524;12.052;2022-08-19T11:44:06;94368.81;;;24.36;100.00
56198;BME280;42700;42.524;12.052;2022-08-19T11:46:36;95782.97;;;24.34;100.00
56198;BME280;42700;42.524;12.052;2022-08-19T11:49:03;96521.13;;;24.03;100.00
56198;BME280;42700;42.524;12.052;2022-08-19T11:51:29;97024.88;;;23.25;100.00
56198;BME280;42700;42.524;12.052;2022-08-19T11:53:55;98001.16;;;22.27;100.00
56198;BME280;42700;42.524;12.052;2022-08-19T11:56:22;98709.09;;;21.90;100.00
56198;BME280;42700;42.524;12.052;2022-08-19T11:58:49;100484.13;;;22.04;100.00
56198;BME280;42700;42.524;12.052;2022-08-19T12:01:15;101358.25;;;22.61;100.00
56198;BME280;42700;42.524;12.052;2022-08-19T12:03:42;101677.31;;;23.53;100.00
56198;BME280;42700;42.524;12.052;2022-08-19T12:06:10;101399.94;;;24.71;100.00
56198;BME280;42700;42.524;12.052;2022-08-19T12:08:37;100631.03;;;25.06;100.00
56198;BME280;42700;42.524;12.052;2022-08-19T12:11:03;100766.00;;;26.52;100.00
56198;BME280;42700;42.524;12.052;2022-08-19T12:13:33;100063.19;;;27.63;100.00
56198;BME280;42700;42.524;12.052;2022-08-19T12:15:59;98861.28;;;27.88;100.00
56198;BME280;42700;42.524;12.052;2022-08-19T12:18:25;97952.13;;;28.25;100.00
56198;BME280;42700;42.524;12.052;2022-08-19T12:20:52;97720.13;;;29.25;100.00
56198;BME280;42700;42.524;12.052;2022-08-19T12:23:20;96939.03;;;29.66;100.00
56198;BME280;42700;42.524;12.052;2022-08-19T12:25:47;93881.22;;;28.50;100.00
56198;BME280;42700;42.524;12.052;2022-08-19T12:28:19;93150.59;;;29.32;100.00
56198;BME280;42700;42.524;12.052;2022-08-19T12:30:46;92204.94;;;29.32;100.00
56198;BME280;42700;42.524;12.052;2022-08-19T12:33:12;91912.28;;;28.95;100.00
56198;BME280;42700;42.524;12.052;2022-08-19T12:35:42;88417.63;;;26.34;100.00
56198;BME280;42700;42.524;12.052;2022-08-19T12:38:09;88179.91;;;25.50;100.00
56198;BME280;42700;42.524;12.052;2022-08-19T12:40:35;89151.41;;;25.34;100.00
56198;BME280;42700;42.524;12.052;2022-08-19T12:43:01;91120.59;;;25.34;100.00
56198;BME280;42700;42.524;12.052;2022-08-19T12:45:27;93006.13;;;25.10;100.00
56198;BME280;42700;42.524;12.052;2022-08-19T12:47:54;94318.84;;;24.21;100.00
56198;BME280;42700;42.524;12.052;2022-08-19T12:50:19;95701.47;;;23.76;100.00